METAR stanice u blizini

 

LYBE - Beograd / Surčin, Srbija
Ažurirano: 06/04/2020 19:30
Vedro
Vedro
 Pravac vetra IJI
Vetar: IJI 24 km/h
Temperatura: 14°C
Tačka rose: -9°C
Vlažnost: 20%
Pritisak: 1030 hPa
Pregled: Vedro
Vidljivost: greater than 10 km
2020/04/06 17:30 LYBE 061730Z 11013KT CAVOK 14/M09 Q1030 NOSIG
LYBT - Beograd / Batajnica, Srbija
Ažurirano: 06/04/2020 19:30
Vedro
Vedro
 Pravac vetra I
Vetar: I 20 km/h
Temperatura: 13°C
Tačka rose: -9°C
Vlažnost: 21%
Pritisak: 1030 hPa
Pregled: Vedro
Vidljivost: greater than 10 km
2020/04/06 17:30 LYBT 061730Z 09011KT CAVOK 13/M09 Q1030 NOSIG
LYVR - Vršac, Srbija
Ažurirano: 06/04/2020 19:30
Vedro
Vedro
 Pravac vetra JI
Vetar: JI 20 km/h
Temperatura: 15°C
Tačka rose: -12°C
Vlažnost: 14%
Pritisak: 1031 hPa
Pregled: Vedro
Vidljivost: greater than 10 km
2020/04/06 17:30 LYVR 061730Z AUTO 14011KT 100V170 CAVOK 15/M12 Q1031
 
LYKV - Lađevci, Srbija
Ažurirano: 06/04/2020 19:30
Vedro
Vedro
 Pravac vetra I
Vetar: I 19 km/h
Temperatura: 13°C
Tačka rose: -8°C
Vlažnost: 23%
Pritisak: 1030 hPa
Pregled: Vedro
Vidljivost: greater than 10 km
2020/04/06 17:30 LYKV 061730Z 08010KT 050V120 CAVOK 13/M08 Q1030 NOSIG
LYNI - Niš, Srbija
Ažurirano: 06/04/2020 19:30
Vedro
Vedro
 Pravac vetra ISI
Vetar: ISI 17 km/h
Temperatura: 13°C
Tačka rose: -9°C
Vlažnost: 21%
Pritisak: 1030 hPa
Pregled: Vedro
Vidljivost: greater than 10 km
2020/04/06 17:30 LYNI 061730Z 06009KT 020V100 CAVOK 13/M09 Q1030 NOSIG
BKPR - Priština, Srbija
Ažurirano: 06/04/2020 20:00
Vedro
Vedro
 Pravac vetra SI
Vetar: SI 22 km/h
Temperatura: 11°C
Tačka rose: -9°C
Vlažnost: 24%
Pritisak: 1027 hPa
Pregled: Vedro
Vidljivost: greater than 10 km
2020/04/06 18:00 BKPR 061800Z 04012KT CAVOK 11/M09 Q1027 NOSIG
 
LHPP - Pecs / Pogany, Hungary
Ažurirano: 06/04/2020 19:15
Vedro
Vedro
 Pravac vetra IJI
Vetar: IJI 20 km/h
Temperatura: 14°C
Tačka rose: -7°C
Vlažnost: 23%
Pritisak: 1029 hPa
Pregled: Vedro
Vidljivost: greater than 10 km
2020/04/06 17:15 LHPP 061715Z 12011KT CAVOK 14/M07 Q1029
LHUD - Szeged, Hungary
Ažurirano: 04/07/2019 01:45
NOT Current
Vedro
Vedro
 Pravac vetra S
Vetar: S 7 km/h
Temperatura: 18°C
Tačka rose: 13°C
Vlažnost: 73%
Pritisak: 1019 hPa
Pregled: Vedro
Vidljivost: greater than 10 km
2019/07/03 23:45 LHUD 032345Z 35004KT CAVOK 18/13 Q1019
LRTR - Timisoara, Romania
Ažurirano: 06/04/2020 19:30
Vedro
Vedro
 Pravac vetra I
Vetar: I 4 km/h
Temperatura: 14°C
Tačka rose: -6°C
Vlažnost: 25%
Pritisak: 1031 hPa
Pregled: Vedro
Vidljivost: greater than 10 km
2020/04/06 17:30 LRTR 061730Z 10002KT CAVOK 14/M06 Q1031 NOSIG
 
LRCV - Craiova, Romania
Ažurirano: 06/04/2020 19:30
Vedro
Vedro
 Pravac vetra ISI
Vetar: ISI 15 km/h
Temperatura: 6°C
Osećaj hladnoće: 3°C
Tačka rose: -3°C
Vlažnost: 53%
Pritisak: 1032 hPa
Oblaci: Vedro
Vidljivost: 10 km
2020/04/06 17:30 LRCV 061730Z AUTO 06008KT 9999 NCD 06/M03 Q1032
LBSF - Sofia, Bulgaria
Ažurirano: 06/04/2020 19:30
Vedro
Vedro
 Pravac vetra ISI
Vetar: ISI 22 km/h
Temperatura: 10°C
Osećaj hladnoće: 7°C
Tačka rose: -4°C
Vlažnost: 37%
Pritisak: 1029 hPa
Pregled: Vedro
Vidljivost: greater than 10 km
2020/04/06 17:30 LBSF 061730Z 06012KT 030V090 CAVOK 10/M04 Q1029 NOSIG
LWSK - Skoplje, Makedonija
Ažurirano: 06/04/2020 20:00
Vedro
Vedro
 Pravac vetra SI
Vetar: SI 11 km/h
Temperatura: 12°C
Tačka rose: -4°C
Vlažnost: 33%
Pritisak: 1027 hPa
Pregled: Vedro
Vidljivost: greater than 10 km
2020/04/06 18:00 LWSK 061800Z 05006KT CAVOK 12/M04 Q1027 NOSIG
 
LYPG - Podgorica, Crna Gora
Ažurirano: 06/04/2020 19:30
Vedro
Vedro
 Pravac vetra ZSZ
Vetar: ZSZ 6 km/h
Temperatura: 16°C
Tačka rose: -3°C
Vlažnost: 27%
Pritisak: 1023 hPa
Pregled: Vedro
Vidljivost: greater than 10 km
2020/04/06 17:30 LYPG 061730Z 30003KT CAVOK 16/M03 Q1023 NOSIG
LQSA - Sarajevo, Bosna i Hercegovina
Ažurirano: 06/04/2020 15:30
NOT Current
Vedro
Vedro
 Pravac vetra ISI
Vetar: ISI 19 km/h
Temperatura: 18°C
Tačka rose: -8°C
Vlažnost: 16%
Pritisak: 1025 hPa
Pregled: Vedro
Vidljivost: greater than 10 km
2020/04/06 13:30 LQSA 061330Z 06010KT 020V130 CAVOK 18/M08 Q1025 NOSIG
LDOS - Osijek, Hrvatksa
Ažurirano: 06/04/2020 19:30
Vedro
Vedro
 Pravac vetra I
Vetar: I 22 km/h
Temperatura: 12°C
Tačka rose: -7°C
Vlažnost: 26%
Pritisak: 1030 hPa
Pregled: Vedro
Vidljivost: greater than 10 km
2020/04/06 17:30 LDOS 061730Z 10012KT CAVOK 12/M07 Q1030